createdAt,value
2018-09-14T00:01:43.100Z,17.33
2018-09-14T00:04:11.680Z,17.35
2018-09-14T00:06:40.204Z,17.36
2018-09-14T00:09:11.736Z,17.29
2018-09-14T00:11:41.109Z,17.40
2018-09-14T00:14:09.956Z,17.33
2018-09-14T00:16:39.176Z,17.31
2018-09-14T00:19:07.734Z,17.21
2018-09-14T00:21:36.189Z,17.18
2018-09-14T00:24:12.110Z,17.15
2018-09-14T00:26:40.670Z,17.13
2018-09-14T00:29:09.445Z,17.10
2018-09-14T00:31:37.791Z,17.09
2018-09-14T00:34:06.443Z,17.04
2018-09-14T00:36:34.939Z,16.94
2018-09-14T00:39:03.849Z,16.91
2018-09-14T00:41:32.675Z,16.90
2018-09-14T00:44:01.204Z,16.94
2018-09-14T00:46:29.782Z,17.05
2018-09-14T00:48:58.069Z,17.11
2018-09-14T00:51:26.688Z,17.14
2018-09-14T00:53:56.669Z,17.26
2018-09-14T00:56:25.222Z,17.36
2018-09-14T00:58:53.884Z,17.28
2018-09-14T01:01:22.312Z,17.38
2018-09-14T01:03:50.977Z,17.41
2018-09-14T01:06:19.500Z,17.45
2018-09-14T01:08:48.039Z,17.43
2018-09-14T01:11:17.686Z,17.49
2018-09-14T01:13:46.197Z,17.51
2018-09-14T01:16:14.985Z,17.37
2018-09-14T01:18:43.980Z,17.31
2018-09-14T01:21:12.562Z,17.36
2018-09-14T01:23:40.824Z,17.27
2018-09-14T01:26:09.765Z,17.20
2018-09-14T01:28:37.995Z,17.19
2018-09-14T01:31:06.892Z,17.19
2018-09-14T01:33:35.400Z,17.18
2018-09-14T01:36:11.012Z,17.11
2018-09-14T01:38:39.864Z,17.18
2018-09-14T01:41:09.140Z,17.21
2018-09-14T01:43:37.582Z,17.28
2018-09-14T01:46:06.253Z,17.19
2018-09-14T01:48:34.502Z,17.30
2018-09-14T01:51:03.038Z,17.20
2018-09-14T01:53:31.926Z,17.18
2018-09-14T01:56:00.675Z,17.31
2018-09-14T01:58:29.549Z,17.36
2018-09-14T02:00:58.354Z,17.39
2018-09-14T02:03:27.112Z,17.37
2018-09-14T02:05:55.334Z,17.35
2018-09-14T02:08:24.760Z,17.33
2018-09-14T02:10:53.179Z,17.30
2018-09-14T02:13:21.784Z,17.34
2018-09-14T02:15:50.747Z,17.34
2018-09-14T02:18:19.360Z,17.44
2018-09-14T02:20:47.603Z,17.32
2018-09-14T02:23:16.595Z,17.22
2018-09-14T02:25:45.149Z,17.21
2018-09-14T02:28:13.397Z,17.27
2018-09-14T02:30:42.587Z,17.28
2018-09-14T02:33:11.104Z,17.45
2018-09-14T02:35:39.949Z,17.50
2018-09-14T02:38:08.476Z,17.41
2018-09-14T02:40:36.825Z,17.35
2018-09-14T02:43:05.379Z,17.39
2018-09-14T02:45:34.332Z,17.42
2018-09-14T02:48:03.302Z,17.31
2018-09-14T02:50:32.887Z,17.36
2018-09-14T02:53:02.044Z,17.33
2018-09-14T02:55:30.731Z,17.38
2018-09-14T02:57:59.809Z,17.21
2018-09-14T03:00:28.055Z,17.09
2018-09-14T03:02:57.103Z,17.34
2018-09-14T03:05:26.365Z,17.34
2018-09-14T03:07:54.644Z,17.21
2018-09-14T03:10:23.565Z,17.24
2018-09-14T03:12:52.488Z,17.18
2018-09-14T03:15:20.826Z,17.47
2018-09-14T03:17:49.946Z,17.27
2018-09-14T03:20:18.207Z,17.29
2018-09-14T03:22:47.080Z,17.41
2018-09-14T03:25:15.347Z,17.42
2018-09-14T03:27:44.089Z,17.36
2018-09-14T03:30:12.929Z,17.34
2018-09-14T03:32:41.209Z,17.33
2018-09-14T03:35:10.100Z,17.32
2018-09-14T03:37:38.668Z,17.26
2018-09-14T03:40:07.582Z,17.37
2018-09-14T03:42:36.963Z,17.34
2018-09-14T03:45:06.334Z,17.36
2018-09-14T03:47:34.922Z,17.38
2018-09-14T03:50:04.341Z,17.40
2018-09-14T03:52:32.883Z,17.51
2018-09-14T03:55:02.076Z,17.58
2018-09-14T03:57:31.852Z,17.46
2018-09-14T04:00:00.768Z,17.38
2018-09-14T04:02:29.265Z,17.43
2018-09-14T04:04:57.531Z,17.42
2018-09-14T04:07:26.096Z,17.28
2018-09-14T04:09:54.640Z,17.26
2018-09-14T04:12:23.517Z,17.20
2018-09-14T04:14:52.031Z,17.18
2018-09-14T04:17:20.298Z,17.21
2018-09-14T04:19:48.788Z,17.29
2018-09-14T04:22:17.864Z,17.53
2018-09-14T04:24:46.109Z,17.57
2018-09-14T04:27:15.568Z,17.40
2018-09-14T04:29:44.157Z,17.38
2018-09-14T04:32:12.412Z,17.39
2018-09-14T04:34:40.748Z,17.47
2018-09-14T04:37:09.360Z,17.53
2018-09-14T04:39:38.239Z,17.50
2018-09-14T04:42:07.514Z,17.59
2018-09-14T04:44:35.752Z,17.46
2018-09-14T04:47:05.408Z,17.63
2018-09-14T04:49:33.953Z,17.43
2018-09-14T04:52:05.083Z,17.41
2018-09-14T04:54:33.320Z,17.40
2018-09-14T04:57:02.028Z,17.40
2018-09-14T04:59:30.384Z,17.37
2018-09-14T05:01:58.577Z,17.56
2018-09-14T05:04:27.109Z,17.70
2018-09-14T05:06:55.383Z,17.52
2018-09-14T05:09:24.826Z,17.45
2018-09-14T05:11:53.354Z,17.34
2018-09-14T05:14:21.684Z,17.47
2018-09-14T05:16:49.940Z,17.48
2018-09-14T05:19:18.498Z,17.57
2018-09-14T05:21:46.881Z,17.48
2018-09-14T05:24:15.130Z,17.57
2018-09-14T05:26:44.304Z,17.48
2018-09-14T05:29:15.377Z,17.51
2018-09-14T05:31:43.918Z,17.67
2018-09-14T05:34:12.465Z,17.62
2018-09-14T05:36:41.276Z,17.65
2018-09-14T05:39:10.499Z,17.51
2018-09-14T05:41:39.744Z,17.63
2018-09-14T05:44:08.839Z,17.64
2018-09-14T05:46:37.576Z,17.59
2018-09-14T05:49:06.780Z,17.61
2018-09-14T05:51:35.432Z,17.53
2018-09-14T05:54:04.810Z,17.60
2018-09-14T05:56:34.028Z,17.64
2018-09-14T05:59:02.397Z,17.71
2018-09-14T06:01:31.951Z,17.75
2018-09-14T06:04:00.329Z,17.69
2018-09-14T06:06:35.381Z,17.53
2018-09-14T06:09:07.360Z,17.64
2018-09-14T06:11:36.068Z,17.73
2018-09-14T06:14:05.946Z,17.78
2018-09-14T06:16:35.757Z,17.77
2018-09-14T06:19:04.917Z,18.01
2018-09-14T06:21:33.915Z,18.00
2018-09-14T06:24:03.209Z,18.04
2018-09-14T06:26:32.680Z,18.04
2018-09-14T06:29:01.401Z,18.27
2018-09-14T06:31:30.092Z,18.42
2018-09-14T06:33:59.163Z,18.33
2018-09-14T06:36:28.584Z,18.33
2018-09-14T06:38:57.180Z,18.44
2018-09-14T06:41:25.808Z,18.81
2018-09-14T06:43:54.810Z,18.79
2018-09-14T06:46:23.609Z,19.08
2018-09-14T06:48:51.912Z,19.46
2018-09-14T06:51:21.213Z,19.34
2018-09-14T06:53:49.485Z,19.56
2018-09-14T06:56:18.194Z,19.82
2018-09-14T06:58:46.734Z,19.90
2018-09-14T07:01:15.392Z,20.17
2018-09-14T07:03:44.003Z,20.18
2018-09-14T07:06:12.303Z,19.82
2018-09-14T07:08:40.993Z,20.02
2018-09-14T07:11:09.510Z,19.69
2018-09-14T07:13:37.708Z,19.26
2018-09-14T07:16:05.962Z,18.89
2018-09-14T07:18:34.339Z,18.72
2018-09-14T07:21:03.028Z,18.62
2018-09-14T07:23:31.527Z,18.61
2018-09-14T07:26:00.162Z,18.65
2018-09-14T07:28:28.503Z,18.88
2018-09-14T07:30:56.946Z,19.03
2018-09-14T07:33:25.208Z,19.01
2018-09-14T07:35:53.928Z,18.96
2018-09-14T07:38:22.265Z,18.95
2018-09-14T07:40:50.789Z,19.06
2018-09-14T07:43:19.024Z,18.95
2018-09-14T07:45:47.967Z,19.05
2018-09-14T07:48:16.753Z,18.99
2018-09-14T07:50:45.019Z,19.13
2018-09-14T07:53:13.350Z,19.26
2018-09-14T07:55:42.342Z,19.52
2018-09-14T07:58:10.876Z,19.76
2018-09-14T08:00:39.552Z,19.97
2018-09-14T08:03:08.376Z,20.09
2018-09-14T08:05:36.649Z,20.50
2018-09-14T08:08:04.969Z,20.13
2018-09-14T08:10:33.344Z,20.26
2018-09-14T08:13:01.932Z,20.20
2018-09-14T08:15:30.633Z,20.05
2018-09-14T08:17:58.928Z,19.82
2018-09-14T08:20:27.752Z,19.85
2018-09-14T08:25:37.058Z,19.55
2018-09-14T08:28:05.560Z,19.50
2018-09-14T08:30:33.999Z,19.57
2018-09-14T08:33:02.723Z,20.07
2018-09-14T08:35:32.167Z,19.87
2018-09-14T08:38:00.767Z,19.71
2018-09-14T08:40:29.414Z,19.47
2018-09-14T08:42:58.696Z,19.46
2018-09-14T08:45:27.135Z,19.52
2018-09-14T08:47:55.382Z,19.66
2018-09-14T08:50:24.707Z,19.82
2018-09-14T08:52:53.785Z,19.92
2018-09-14T08:55:22.324Z,20.08
2018-09-14T08:57:51.583Z,19.78
2018-09-14T09:00:25.116Z,20.29
2018-09-14T09:02:54.615Z,20.80
2018-09-14T09:05:24.134Z,20.90
2018-09-14T09:07:53.041Z,21.36
2018-09-14T09:10:21.829Z,21.20
2018-09-14T09:12:50.780Z,21.37
2018-09-14T09:15:19.426Z,21.58
2018-09-14T09:17:48.339Z,22.14
2018-09-14T09:20:17.191Z,21.99
2018-09-14T09:22:45.768Z,22.65
2018-09-14T09:25:14.277Z,23.44
2018-09-14T09:27:42.532Z,23.88
2018-09-14T09:30:10.762Z,24.88
2018-09-14T09:32:39.453Z,25.63
2018-09-14T09:35:09.229Z,25.49
2018-09-14T09:37:37.567Z,24.72
2018-09-14T09:40:06.717Z,24.18
2018-09-14T09:42:35.236Z,24.80
2018-09-14T09:45:04.127Z,25.25
2018-09-14T09:47:32.901Z,25.98
2018-09-14T09:50:01.759Z,24.72
2018-09-14T09:52:30.282Z,24.79
2018-09-14T09:54:58.851Z,25.07
2018-09-14T09:57:27.400Z,25.07
2018-09-14T09:59:55.685Z,25.01
2018-09-14T10:02:28.155Z,24.21
2018-09-14T10:05:01.870Z,24.59
2018-09-14T10:07:30.700Z,24.08
2018-09-14T10:09:59.176Z,23.72
2018-09-14T10:12:27.970Z,23.76
2018-09-14T10:14:56.300Z,23.80
2018-09-14T10:17:25.162Z,23.14
2018-09-14T10:19:53.411Z,22.82
2018-09-14T10:22:23.662Z,22.77
2018-09-14T10:24:53.859Z,22.20
2018-09-14T10:27:23.692Z,21.78
2018-09-14T10:29:53.579Z,21.70
2018-09-14T10:32:23.641Z,21.14
2018-09-14T10:34:53.552Z,20.88
2018-09-14T10:37:23.286Z,21.25
2018-09-14T10:39:53.757Z,21.17
2018-09-14T10:42:26.912Z,21.26
2018-09-14T10:44:57.705Z,21.19
2018-09-14T10:47:27.656Z,21.75
2018-09-14T10:49:55.980Z,21.88
2018-09-14T10:52:25.857Z,22.00
2018-09-14T10:54:54.689Z,21.94
2018-09-14T10:57:23.441Z,22.16
2018-09-14T10:59:52.262Z,22.42
2018-09-14T11:02:20.452Z,22.53
2018-09-14T11:04:49.897Z,22.74
2018-09-14T11:07:18.534Z,22.54
2018-09-14T11:09:47.239Z,23.00
2018-09-14T11:12:15.548Z,22.95
2018-09-14T11:14:45.335Z,22.58
2018-09-14T11:17:14.797Z,22.94
2018-09-14T11:19:45.014Z,22.89
2018-09-14T11:22:16.523Z,22.96
2018-09-14T11:24:47.280Z,23.15
2018-09-14T11:27:18.835Z,23.47
2018-09-14T11:29:47.077Z,23.54
2018-09-14T11:32:17.573Z,23.36
2018-09-14T11:34:46.211Z,23.62
2018-09-14T11:37:14.648Z,23.35
2018-09-14T11:39:42.927Z,23.57
2018-09-14T11:42:11.604Z,23.56
2018-09-14T11:44:40.399Z,23.60
2018-09-14T11:47:09.138Z,23.83
2018-09-14T11:49:37.389Z,24.19
2018-09-14T11:52:06.028Z,24.31
2018-09-14T11:54:34.309Z,24.30
2018-09-14T11:57:02.931Z,23.72
2018-09-14T11:59:31.243Z,24.16
2018-09-14T12:01:59.844Z,24.04
2018-09-14T12:04:28.556Z,23.86
2018-09-14T12:06:56.779Z,23.94
2018-09-14T12:09:25.411Z,24.21
2018-09-14T12:11:53.648Z,24.58
2018-09-14T12:14:21.926Z,24.12
2018-09-14T12:16:51.038Z,24.30
2018-09-14T12:19:19.370Z,24.67
2018-09-14T12:21:47.661Z,24.87
2018-09-14T12:24:16.236Z,25.12
2018-09-14T12:26:44.717Z,25.05
2018-09-14T12:29:13.313Z,24.66
2018-09-14T12:31:41.559Z,25.07
2018-09-14T12:34:09.856Z,25.37
2018-09-14T12:36:38.333Z,25.27
2018-09-14T12:39:09.026Z,25.06
2018-09-14T12:41:37.449Z,25.26
2018-09-14T12:44:06.136Z,25.69
2018-09-14T12:46:34.412Z,26.22
2018-09-14T12:49:02.951Z,26.69
2018-09-14T12:51:32.104Z,25.89
2018-09-14T12:54:01.036Z,25.95
2018-09-14T12:56:29.820Z,26.10
2018-09-14T12:58:58.060Z,26.23
2018-09-14T13:01:26.599Z,26.62
2018-09-14T13:03:55.253Z,26.63
2018-09-14T13:06:23.560Z,27.03
2018-09-14T13:08:52.320Z,27.11
2018-09-14T13:11:21.078Z,27.63
2018-09-14T13:13:50.451Z,29.76
2018-09-14T13:16:18.900Z,30.73
2018-09-14T13:18:47.790Z,30.49
2018-09-14T13:21:16.097Z,31.00
2018-09-14T13:23:44.853Z,30.41
2018-09-14T13:26:13.148Z,31.20
2018-09-14T13:28:42.621Z,33.70
2018-09-14T13:31:10.916Z,33.68
2018-09-14T13:33:39.433Z,34.23
2018-09-14T13:36:08.100Z,35.37
2018-09-14T13:38:36.364Z,35.27
2018-09-14T13:41:04.597Z,35.20
2018-09-14T13:43:32.834Z,34.10
2018-09-14T13:46:01.049Z,33.33
2018-09-14T13:48:29.956Z,35.21
2018-09-14T13:50:58.480Z,34.22
2018-09-14T13:53:26.768Z,33.46
2018-09-14T13:55:55.247Z,35.04
2018-09-14T13:58:23.503Z,31.90
2018-09-14T14:00:51.905Z,30.14
2018-09-14T14:03:22.180Z,29.80
2018-09-14T14:05:50.694Z,29.16
2018-09-14T14:08:19.325Z,27.59
2018-09-14T14:10:47.927Z,28.43
2018-09-14T14:13:16.271Z,27.93
2018-09-14T14:15:44.853Z,28.05
2018-09-14T14:18:13.165Z,27.47
2018-09-14T14:20:41.781Z,27.59
2018-09-14T14:23:10.037Z,27.88
2018-09-14T14:25:38.584Z,26.81
2018-09-14T14:28:07.297Z,26.38
2018-09-14T14:30:36.722Z,25.80
2018-09-14T14:33:05.632Z,25.67
2018-09-14T14:35:34.296Z,25.67
2018-09-14T14:38:02.512Z,26.19
2018-09-14T14:40:30.892Z,26.18
2018-09-14T14:43:00.869Z,27.39
2018-09-14T14:45:30.003Z,28.29
2018-09-14T14:47:58.744Z,28.30
2018-09-14T14:50:27.229Z,28.85
2018-09-14T14:52:55.710Z,28.53
2018-09-14T14:55:24.201Z,28.17
2018-09-14T14:57:52.769Z,27.45
2018-09-14T15:00:21.889Z,26.11
2018-09-14T15:02:50.253Z,25.72
2018-09-14T15:05:19.093Z,26.05
2018-09-14T15:07:47.220Z,26.93
2018-09-14T15:10:16.428Z,28.52
2018-09-14T15:12:45.335Z,30.27
2018-09-14T15:15:13.610Z,31.08
2018-09-14T15:17:43.999Z,31.32
2018-09-14T15:20:12.362Z,31.34
2018-09-14T15:22:40.888Z,31.03
2018-09-14T15:25:09.400Z,29.00
2018-09-14T15:27:38.271Z,27.69
2018-09-14T15:30:06.827Z,26.82
2018-09-14T15:32:35.101Z,25.71
2018-09-14T15:35:03.436Z,25.19
2018-09-14T15:37:32.085Z,24.88
2018-09-14T15:40:00.389Z,25.62
2018-09-14T15:42:29.080Z,27.51
2018-09-14T15:44:57.509Z,28.74
2018-09-14T15:47:26.140Z,29.00
2018-09-14T15:49:54.961Z,28.78
2018-09-14T15:52:23.243Z,27.26
2018-09-14T15:54:52.156Z,27.12
2018-09-14T15:57:20.449Z,26.14
2018-09-14T15:59:48.972Z,25.73
2018-09-14T16:02:18.092Z,25.07
2018-09-14T16:04:46.658Z,25.29
2018-09-14T16:07:15.244Z,26.73
2018-09-14T16:09:45.808Z,27.80
2018-09-14T16:12:15.263Z,28.57
2018-09-14T16:14:45.136Z,28.84
2018-09-14T16:17:16.189Z,27.63
2018-09-14T16:19:47.294Z,25.98
2018-09-14T16:22:18.925Z,24.87
2018-09-14T16:24:49.667Z,24.46
2018-09-14T16:27:19.859Z,23.89
2018-09-14T16:29:50.081Z,23.56
2018-09-14T16:32:18.640Z,23.36
2018-09-14T16:34:47.399Z,23.80
2018-09-14T16:37:17.085Z,23.62
2018-09-14T16:39:46.358Z,23.26
2018-09-14T16:42:15.293Z,23.01
2018-09-14T16:44:44.249Z,23.09
2018-09-14T16:47:14.343Z,23.07
2018-09-14T16:49:42.989Z,23.01
2018-09-14T16:52:12.556Z,22.76
2018-09-14T16:54:41.785Z,22.56
2018-09-14T16:57:10.460Z,22.33
2018-09-14T16:59:39.416Z,22.22
2018-09-14T17:02:08.095Z,22.06
2018-09-14T17:04:39.145Z,21.95
2018-09-14T17:07:07.964Z,21.78
2018-09-14T17:09:37.310Z,21.72
2018-09-14T17:12:06.181Z,21.75
2018-09-14T17:14:34.883Z,21.77
2018-09-14T17:17:03.667Z,21.83
2018-09-14T17:19:32.145Z,21.83
2018-09-14T17:22:01.384Z,22.05
2018-09-14T17:24:31.684Z,21.98
2018-09-14T17:27:00.331Z,21.82
2018-09-14T17:29:28.615Z,21.61
2018-09-14T17:31:57.313Z,21.55
2018-09-14T17:34:25.544Z,21.40
2018-09-14T17:36:53.924Z,21.19
2018-09-14T17:39:23.063Z,21.11
2018-09-14T17:41:51.693Z,21.05
2018-09-14T17:44:20.196Z,21.13
2018-09-14T17:46:48.495Z,21.03
2018-09-14T17:49:16.686Z,21.12
2018-09-14T17:51:45.712Z,20.92
2018-09-14T17:54:14.501Z,21.08
2018-09-14T17:56:43.986Z,20.96
2018-09-14T17:59:12.278Z,21.03
2018-09-14T18:01:41.004Z,20.89
2018-09-14T18:04:10.056Z,20.89
2018-09-14T18:06:38.365Z,20.92
2018-09-14T18:09:10.571Z,20.92
2018-09-14T18:11:39.387Z,20.91
2018-09-14T18:14:08.220Z,20.86
2018-09-14T18:16:36.764Z,20.93
2018-09-14T18:19:05.326Z,20.77
2018-09-14T18:21:33.670Z,20.75
2018-09-14T18:24:12.759Z,20.77
2018-09-14T18:26:41.271Z,20.73
2018-09-14T18:29:10.508Z,20.70
2018-09-14T18:36:47.498Z,20.46
2018-09-14T18:39:16.389Z,20.44
2018-09-14T18:41:45.233Z,20.32
2018-09-14T18:44:19.159Z,20.34
2018-09-14T18:46:48.161Z,20.38
2018-09-14T18:49:16.439Z,20.32
2018-09-14T18:51:44.792Z,20.23
2018-09-14T18:54:13.857Z,20.32
2018-09-14T18:56:46.032Z,20.31
2018-09-14T18:59:14.855Z,20.24
2018-09-14T19:01:43.856Z,20.34
2018-09-14T19:04:12.219Z,20.37
2018-09-14T19:06:40.780Z,20.26
2018-09-14T19:09:10.816Z,20.14
2018-09-14T19:11:39.270Z,20.17
2018-09-14T19:14:07.590Z,20.18
2018-09-14T19:16:36.339Z,20.20
2018-09-14T19:19:09.269Z,20.18
2018-09-14T19:21:38.157Z,20.13
2018-09-14T19:24:06.672Z,20.13
2018-09-14T19:26:35.953Z,20.06
2018-09-14T19:29:04.171Z,20.03
2018-09-14T19:31:35.109Z,20.02
2018-09-14T19:34:03.569Z,20.17
2018-09-14T19:36:31.867Z,20.08
2018-09-14T19:39:00.228Z,20.02
2018-09-14T19:41:28.704Z,20.04
2018-09-14T19:43:56.938Z,20.15
2018-09-14T19:46:25.991Z,19.99
2018-09-14T19:48:54.443Z,19.92
2018-09-14T19:51:23.330Z,19.99
2018-09-14T19:53:51.883Z,20.01
2018-09-14T19:56:20.674Z,20.01
2018-09-14T19:58:49.109Z,19.94
2018-09-14T20:01:17.633Z,19.96
2018-09-14T20:03:45.891Z,19.99
2018-09-14T20:06:14.907Z,19.88
2018-09-14T20:08:43.193Z,19.95
2018-09-14T20:11:12.097Z,20.07
2018-09-14T20:13:41.077Z,20.00
2018-09-14T20:16:09.355Z,19.97
2018-09-14T20:18:37.836Z,19.87
2018-09-14T20:21:06.386Z,19.93
2018-09-14T20:23:34.792Z,19.91
2018-09-14T20:26:03.008Z,19.86
2018-09-14T20:28:31.785Z,19.80
2018-09-14T20:31:00.447Z,19.78
2018-09-14T20:33:29.279Z,19.80
2018-09-14T20:35:57.606Z,19.79
2018-09-14T20:38:26.556Z,19.86
2018-09-14T20:40:54.827Z,19.76
2018-09-14T20:43:24.144Z,19.78
2018-09-14T20:45:54.057Z,19.76
2018-09-14T20:48:22.759Z,19.81
2018-09-14T20:50:51.944Z,19.74
2018-09-14T20:53:21.479Z,19.56
2018-09-14T20:55:51.250Z,19.59
2018-09-14T20:58:21.309Z,19.68
2018-09-14T21:00:50.956Z,19.67
2018-09-14T21:03:20.419Z,19.69
2018-09-14T21:05:49.003Z,19.59
2018-09-14T21:08:17.400Z,19.58
2018-09-14T21:10:46.804Z,19.56
2018-09-14T21:13:15.106Z,19.53
2018-09-14T21:15:43.372Z,19.56
2018-09-14T21:18:11.835Z,19.52
2018-09-14T21:20:40.099Z,19.47
2018-09-14T21:23:08.407Z,19.45
2018-09-14T21:25:36.866Z,19.38
2018-09-14T21:28:05.077Z,19.41
2018-09-14T21:30:33.863Z,19.39
2018-09-14T21:33:02.622Z,19.36
2018-09-14T21:35:31.042Z,19.32
2018-09-14T21:37:59.713Z,19.42
2018-09-14T21:40:28.109Z,19.53
2018-09-14T21:42:56.913Z,19.56
2018-09-14T21:45:28.078Z,19.42
2018-09-14T21:47:56.287Z,19.48
2018-09-14T21:50:24.685Z,19.51
2018-09-14T21:52:53.196Z,19.45
2018-09-14T21:55:21.491Z,19.42
2018-09-14T21:57:49.717Z,19.32
2018-09-14T22:00:23.477Z,19.29
2018-09-14T22:02:51.972Z,19.25
2018-09-14T22:05:20.194Z,19.25
2018-09-14T22:07:48.541Z,19.30
2018-09-14T22:10:17.125Z,19.44
2018-09-14T22:12:45.638Z,19.51
2018-09-14T22:15:14.027Z,19.44
2018-09-14T22:17:43.073Z,19.34
2018-09-14T22:20:11.307Z,19.27
2018-09-14T22:22:39.845Z,19.25
2018-09-14T22:25:08.612Z,19.17
2018-09-14T22:27:37.261Z,19.18
2018-09-14T22:30:07.048Z,19.23
2018-09-14T22:32:35.393Z,19.33
2018-09-14T22:35:03.623Z,19.18
2018-09-14T22:37:31.825Z,19.18
2018-09-14T22:40:00.633Z,19.28
2018-09-14T22:42:28.860Z,19.25
2018-09-14T22:44:57.070Z,19.30
2018-09-14T22:47:25.684Z,19.35
2018-09-14T22:49:53.888Z,19.42
2018-09-14T22:52:22.154Z,19.36
2018-09-14T22:54:50.726Z,19.38
2018-09-14T22:57:19.317Z,19.42
2018-09-14T22:59:47.854Z,19.50
2018-09-14T23:02:16.158Z,19.46
2018-09-14T23:04:44.625Z,19.29
2018-09-14T23:07:12.921Z,19.26
2018-09-14T23:09:41.550Z,19.15
2018-09-14T23:12:09.799Z,19.08
2018-09-14T23:14:38.333Z,19.04
2018-09-14T23:17:08.431Z,19.02
2018-09-14T23:19:37.777Z,19.02
2018-09-14T23:22:06.349Z,19.22
2018-09-14T23:24:34.603Z,19.31
2018-09-14T23:27:03.066Z,19.20
2018-09-14T23:29:32.491Z,19.19
2018-09-14T23:32:00.981Z,19.20
2018-09-14T23:34:29.460Z,19.13
2018-09-14T23:36:58.029Z,19.33
2018-09-14T23:39:26.268Z,19.26
2018-09-14T23:41:54.803Z,19.31
2018-09-14T23:44:22.999Z,19.25
2018-09-14T23:46:51.250Z,19.15
2018-09-14T23:49:19.576Z,19.10
2018-09-14T23:51:47.871Z,19.01
2018-09-14T23:54:16.073Z,19.07
2018-09-14T23:56:44.629Z,19.15
2018-09-14T23:59:13.100Z,19.17
